Airfield :
LOGIN :

Register | Disclaimer

   EN    FR    IT 

 










Legend :    VFR   Marginal VFR   IFR   Intensive IFR   Very Intensive IFR
Visi :
Ceiling :
>= 8 km
>= 3000ft
5 to 8 km
1000 to 3000 ft
1500m to 5 km
500 to 1000 ft
800 to 1500m
200 to 500 ft
< 800m
< 200 ft
Symbols :   Thunderstorms  Fog  Heavy snow  Heavy precipitations  Wind > 20 kt
SIGMETs :     Misc.  Thunderstorms  Icing  Turbulence  Mountain Waves  Volcanic Ashes







- Airport Elevation : 160 ft
- IATA code : FMO


EDDG - Münster Osnabrück Int.

CURRENT METAR :
  • 171920Z 21003KT 160V300 CAVOK 06/02 Q1025 NOSIG

EXPIRED METARs :
  • 171850Z 22003KT 170V250 CAVOK 06/02 Q1025 NOSIG
  • 171820Z 23004KT CAVOK 06/02 Q1025 NOSIG
  • 171750Z 21002KT 9999 BKN048 05/02 Q1025 NOSIG
  • 171720Z 24001KT CAVOK 04/02 Q1025 NOSIG
  • 171650Z 17003KT 140V200 9999 FEW047 05/02 Q1025 NOSIG

TAF TAF EDDG
Valid from the 17 at 18:00 until the 18 at 18:00 UTC


171700Z 1718/1818 21004KT 9999 SCT035
BECMG 1803/1806 23010KT
BECMG 1806/1809 24015G25KT
TEMPO 1811/1816 27020G30KT SHRA BKN015TCU
BECMG 1816/1818 25010KT
No reported NOTAMs for that airfield.



MET'MAP, your aeronautical weather chart ! - Copyright ORBIFLY December 2007 - Disclaimer

ORBIFLY MET'MAP TEAM :

Programming & Development : Alexandra Zaïnal
Concept & Development : Baudouin d'Aumeries
Co-Development & Prog : Marc-Olivier Méhu
Technical & hardware support : Manuel Goepfert

Contact : metmap@orbifly.com




SOURCES & CREDITS :

   NOAA